CheckWX is a tool to help pilots better visualize weather data.  It is not intended as a substitute for an official pre-flight weather briefing.

23:36:49 UTC

KDIJ METAR
Driggs-Reed Memorial Airport
Driggs, Idaho, USA
Current

41 mins ago

KDIJ 182256Z AUTO 22008KT 10SM OVC055 06/M04 A2993 RMK AO2 RAE02 SLP145 P0000 T00561044
Observed
Oct-18 @ 22:56 UTC
Wind
  • 220° at 8 KTS
Visibility
10 SM
Flight Rules
VFR
Cloud Levels
  • Overcast at 5,500' AGL
Temperature
C / 43°F
Dewpoint
-4°C / 25°F
Humidity
49%
Altimeter
29.93" Hg
Pressure
1013.52 hPa
Current Rain
0.01"
Previous

2 hours ago

KDIJ 182156Z AUTO 20009KT 10SM -RA FEW031 SCT038 OVC090 03/M01 A2993 RMK AO2 UPE41RAB41 SLP146 P0001 T00331011
Observed
Oct-18 @ 21:56 UTC
Wind
  • 200° at 9 KTS
Visibility
10 SM
Flight Rules
VFR
Conditions
Light Rain
Cloud Levels
  • Few at 3,100' AGL
  • Scattered at 3,800' AGL
  • Overcast at 9,000' AGL
Temperature
C / 37°F
Dewpoint
-1°C / 30°F
Humidity
75%
Altimeter
29.93" Hg
Pressure
1013.52 hPa
Current Rain
0.01"
Previous

3 hours ago

KDIJ 182056Z AUTO 17007KT 10SM UP BKN035 OVC047 03/M01 A2993 RMK AO2 UPE13B54RAB13E54 SLP140 P0000 60000 T00281011 56005
Observed
Oct-18 @ 20:56 UTC
Wind
  • 170° at 7 KTS
Visibility
10 SM
Flight Rules
VFR
Conditions
Unknown precipitation
Cloud Levels
  • Broken at 3,500' AGL
  • Overcast at 4,700' AGL
Temperature
C / 37°F
Dewpoint
-1°C / 30°F
Humidity
75%
Altimeter
29.93" Hg
Pressure
1013.52 hPa
Current Rain
0.01"